Anvik Airport Anvik US
ICAO: PANV
IATA:
Category: Medium
Scheduled Services:

Elevation: 291 ft
TransAlt. 18000 ft.

Airport Communications:
AWOS 3:133.55
ANCHORAGE CNTR:135.7
KENAI RDO:122.4
CTAF/UNICOM:122.7

PANV Zoom In..

If you have problems with the map follow the link
https://www.worldairports.se/pages/airport.php?
ICAO=PANV

Runways:

(A) RW 17 length 4000 ft width 75 ft
---- / hdg 172

(B) RW 35 length 4000 ft width 75 ft
---- / hdg 352

Location; PANV
Day. 18 / Time. 02.16 Zulu
* Altimeter: 29.45
* Temperature: -07° c. -19.4°f.
* Wind from: 080° Speed 08 kn.
Dewpoint: -07° c.
Visibility: 3/4 Statute Miles.
Clouds: Overcast 1300 ft.
Conditions: Light Snow.Conditions: Mist.

PANV 180216Z AUTO 08008KT 3/4SM -SN BR OVC013 M07/M07 A2945 RMK AO2 P0000 FZRANO


Wind From 080°
Speed 08 kn.

 
 
jpsmedia.com for Web Design worldairports.se 2019   terms of use